aviador You're here:

VEGT Decoded Metar

GAUHATI in INDIA
Report Time2018-01-21 06:30:00
UTC Time2018-01-21 06:41:58
Flight Rules ifr IFR
Wind350° at 05 kt
W.Decomp.*RWY 02: 4.3 kt HW 2.5 kt LCW
W.Rank350° ranks 20
Current wind is below 350° avg. (5.4)
Visibility2500 m
Phenomena:Haze
Clouds:N/A
Expected CloudBase > 3,600 ft AGL from Temp-Dew spread
CeilingNone
Temp24°C (ISA +9)
Dew Point15°C (57% RH)
AAT23.8°C
QNH1013 hPa
Density Alt1,490 ft
Elevation177 ft
Report Wrong Elevation
Raw Report
METAR VEGT 210630Z 35005KT 2500 HZ NSC 24/15 Q1013 NOSIG=

Extra information for VEGT:More info

Airport Information Weather charts Add Link Nearby Venues Social comments